createdAt,value
2022-10-06T00:02:10.280Z,83.91
2022-10-06T00:04:42.842Z,85.89
2022-10-06T00:07:18.781Z,85.73
2022-10-06T00:09:51.010Z,86.01
2022-10-06T00:12:23.228Z,87.35
2022-10-06T00:14:55.286Z,88.61
2022-10-06T00:17:27.471Z,89.61
2022-10-06T00:19:59.522Z,90.47
2022-10-06T00:22:44.669Z,91.29
2022-10-06T00:25:22.148Z,91.60
2022-10-06T00:27:55.457Z,92.26
2022-10-06T00:30:31.614Z,93.27
2022-10-06T00:33:05.015Z,93.97
2022-10-06T00:35:37.593Z,93.56
2022-10-06T00:38:16.400Z,93.40
2022-10-06T00:40:51.445Z,93.67
2022-10-06T00:43:51.920Z,93.75
2022-10-06T00:46:47.601Z,93.23
2022-10-06T00:49:27.735Z,91.60
2022-10-06T00:52:09.204Z,91.92
2022-10-06T00:54:42.662Z,91.61
2022-10-06T00:57:15.580Z,90.71
2022-10-06T00:59:48.649Z,90.84
2022-10-06T01:02:30.082Z,90.34
2022-10-06T01:05:06.026Z,89.93
2022-10-06T01:07:38.444Z,89.74
2022-10-06T01:10:10.930Z,89.49
2022-10-06T01:12:43.522Z,89.45
2022-10-06T01:15:16.836Z,89.02
2022-10-06T01:18:15.665Z,88.19
2022-10-06T01:21:02.715Z,88.30
2022-10-06T01:23:36.282Z,87.33
2022-10-06T01:26:11.491Z,87.40
2022-10-06T01:28:43.491Z,87.50
2022-10-06T01:31:16.020Z,86.84
2022-10-06T01:33:55.257Z,87.11
2022-10-06T01:36:27.195Z,87.46
2022-10-06T01:38:59.158Z,87.05
2022-10-06T01:41:33.345Z,87.22
2022-10-06T01:44:05.284Z,86.98
2022-10-06T01:46:37.212Z,87.08
2022-10-06T01:49:09.194Z,86.84
2022-10-06T01:51:41.804Z,86.52
2022-10-06T01:54:14.575Z,86.34
2022-10-06T01:56:46.518Z,86.50
2022-10-06T01:59:18.483Z,85.88
2022-10-06T02:01:51.422Z,86.50
2022-10-06T02:04:23.441Z,86.09
2022-10-06T02:06:55.690Z,86.28
2022-10-06T02:09:27.644Z,86.54
2022-10-06T02:11:59.571Z,86.37
2022-10-06T02:14:32.815Z,86.54
2022-10-06T02:17:04.731Z,86.24
2022-10-06T02:19:36.889Z,86.36
2022-10-06T02:22:08.835Z,86.51
2022-10-06T02:24:40.783Z,86.47
2022-10-06T02:27:12.701Z,86.57
2022-10-06T02:29:45.209Z,86.89
2022-10-06T02:32:17.169Z,86.06
2022-10-06T02:34:49.985Z,86.72
2022-10-06T02:37:21.915Z,86.49
2022-10-06T02:39:53.871Z,85.95
2022-10-06T02:42:25.919Z,86.39
2022-10-06T02:44:59.073Z,87.34
2022-10-06T02:47:32.602Z,87.53
2022-10-06T02:50:07.915Z,87.38
2022-10-06T02:52:42.812Z,87.15
2022-10-06T02:55:15.480Z,87.48
2022-10-06T02:57:47.412Z,87.17
2022-10-06T03:00:19.518Z,87.41
2022-10-06T03:02:51.609Z,87.23
2022-10-06T03:05:23.638Z,86.29
2022-10-06T03:07:55.634Z,86.77
2022-10-06T03:10:27.567Z,86.65
2022-10-06T03:12:59.485Z,86.87
2022-10-06T03:15:31.404Z,86.06
2022-10-06T03:18:03.524Z,86.44
2022-10-06T03:20:35.765Z,86.38
2022-10-06T03:23:12.735Z,85.66
2022-10-06T03:25:55.538Z,85.80
2022-10-06T03:28:28.574Z,85.79
2022-10-06T03:31:03.159Z,86.16
2022-10-06T03:33:35.187Z,85.51
2022-10-06T03:36:17.247Z,85.08
2022-10-06T03:38:49.542Z,84.73
2022-10-06T03:41:28.461Z,85.07
2022-10-06T03:44:00.821Z,85.63
2022-10-06T03:46:35.373Z,84.99
2022-10-06T03:49:07.424Z,84.69
2022-10-06T03:51:41.569Z,84.13
2022-10-06T03:54:13.537Z,84.28
2022-10-06T03:56:46.388Z,83.66
2022-10-06T03:59:19.657Z,83.15
2022-10-06T04:01:53.106Z,82.44
2022-10-06T04:04:25.271Z,81.95
2022-10-06T04:06:57.472Z,82.02
2022-10-06T04:09:29.556Z,82.10
2022-10-06T04:12:01.674Z,81.92
2022-10-06T04:14:33.637Z,81.37
2022-10-06T04:17:05.862Z,81.35
2022-10-06T04:19:37.918Z,81.46
2022-10-06T04:22:09.869Z,80.77
2022-10-06T04:24:41.871Z,80.37
2022-10-06T04:27:29.198Z,80.88
2022-10-06T04:30:01.111Z,80.57
2022-10-06T04:32:33.155Z,80.34
2022-10-06T04:35:05.590Z,80.85
2022-10-06T04:37:37.643Z,81.01
2022-10-06T04:40:09.922Z,80.89
2022-10-06T04:42:43.435Z,80.70
2022-10-06T04:45:15.457Z,80.67
2022-10-06T04:47:50.118Z,80.91
2022-10-06T04:50:22.068Z,80.99
2022-10-06T04:52:54.016Z,80.60
2022-10-06T04:55:26.228Z,80.70
2022-10-06T04:57:58.209Z,81.35
2022-10-06T05:00:30.202Z,81.23
2022-10-06T05:03:02.280Z,81.59
2022-10-06T05:05:34.204Z,81.58
2022-10-06T05:08:06.163Z,81.14
2022-10-06T05:10:38.141Z,81.24
2022-10-06T05:13:11.657Z,81.33
2022-10-06T05:15:43.598Z,81.59
2022-10-06T05:18:15.562Z,81.64
2022-10-06T05:21:06.863Z,80.95
2022-10-06T05:23:40.944Z,81.31
2022-10-06T05:26:16.437Z,81.15
2022-10-06T05:28:48.824Z,81.92
2022-10-06T05:31:27.857Z,81.84
2022-10-06T05:34:00.678Z,82.17
2022-10-06T05:36:34.164Z,81.92
2022-10-06T05:39:06.160Z,82.22
2022-10-06T05:41:38.270Z,82.45
2022-10-06T05:44:10.918Z,81.71
2022-10-06T05:46:42.854Z,82.17
2022-10-06T05:49:14.947Z,81.89
2022-10-06T05:51:46.899Z,81.97
2022-10-06T05:54:19.039Z,82.44
2022-10-06T05:56:50.955Z,82.17
2022-10-06T05:59:22.930Z,81.96
2022-10-06T06:01:54.935Z,81.36
2022-10-06T06:04:26.905Z,81.67
2022-10-06T06:06:58.812Z,82.10
2022-10-06T06:09:30.890Z,81.62
2022-10-06T06:12:02.902Z,81.55
2022-10-06T06:14:53.151Z,81.15
2022-10-06T06:17:25.087Z,80.44
2022-10-06T06:19:57.094Z,81.24
2022-10-06T06:22:29.022Z,80.80
2022-10-06T06:25:00.962Z,80.02
2022-10-06T06:27:32.866Z,80.46
2022-10-06T06:30:06.206Z,80.63
2022-10-06T06:32:38.192Z,80.11
2022-10-06T06:35:11.660Z,80.05
2022-10-06T06:37:45.101Z,80.13
2022-10-06T06:40:17.043Z,79.54
2022-10-06T06:42:53.697Z,79.46
2022-10-06T06:45:25.997Z,79.08
2022-10-06T06:48:02.478Z,78.18
2022-10-06T06:50:34.427Z,77.57
2022-10-06T06:53:06.367Z,77.45
2022-10-06T06:55:51.204Z,77.27
2022-10-06T06:58:23.189Z,76.73
2022-10-06T07:00:55.248Z,76.94
2022-10-06T07:03:55.409Z,76.09
2022-10-06T07:06:19.763Z,75.45
2022-10-06T07:08:53.156Z,75.72
2022-10-06T07:11:34.962Z,75.77
2022-10-06T07:14:12.763Z,76.23
2022-10-06T07:17:03.328Z,75.56
2022-10-06T07:19:53.788Z,74.84
2022-10-06T07:22:47.678Z,74.96
2022-10-06T07:25:26.425Z,74.32
2022-10-06T07:27:58.824Z,74.44
2022-10-06T07:30:30.907Z,74.33
2022-10-06T07:33:05.117Z,72.84
2022-10-06T07:35:39.456Z,73.36
2022-10-06T07:38:11.433Z,72.33
2022-10-06T07:40:50.610Z,71.33
2022-10-06T07:43:35.316Z,70.69
2022-10-06T07:46:11.798Z,70.31
2022-10-06T07:48:44.683Z,68.71
2022-10-06T07:51:19.276Z,67.61
2022-10-06T07:53:51.343Z,67.11
2022-10-06T07:56:23.864Z,67.25
2022-10-06T07:58:58.658Z,65.89
2022-10-06T08:01:31.213Z,65.67
2022-10-06T08:04:06.990Z,63.57
2022-10-06T08:06:39.650Z,64.65
2022-10-06T08:09:11.582Z,64.88
2022-10-06T08:11:45.145Z,64.32
2022-10-06T08:14:17.145Z,63.46
2022-10-06T08:16:49.070Z,63.89
2022-10-06T08:19:21.640Z,63.37
2022-10-06T08:21:53.610Z,65.18
2022-10-06T08:24:30.534Z,66.77
2022-10-06T08:27:05.791Z,65.76
2022-10-06T08:29:37.716Z,65.78
2022-10-06T08:32:09.664Z,66.30
2022-10-06T08:34:41.817Z,66.94
2022-10-06T08:37:20.204Z,67.41
2022-10-06T08:39:56.254Z,67.38
2022-10-06T08:42:40.145Z,66.04
2022-10-06T08:45:29.778Z,66.03
2022-10-06T08:48:11.409Z,66.36
2022-10-06T08:50:58.391Z,65.72
2022-10-06T08:53:36.196Z,66.02
2022-10-06T08:56:45.106Z,65.52
2022-10-06T08:59:17.133Z,66.12
2022-10-06T09:01:52.345Z,65.21
2022-10-06T09:04:34.450Z,66.21
2022-10-06T09:07:19.310Z,64.97
2022-10-06T09:10:17.620Z,63.57
2022-10-06T09:13:09.414Z,63.86
2022-10-06T09:15:51.041Z,63.79
2022-10-06T09:18:56.531Z,64.78
2022-10-06T09:21:50.492Z,62.36
2022-10-06T09:24:35.289Z,63.58
2022-10-06T09:27:34.199Z,63.56
2022-10-06T09:30:08.709Z,63.33
2022-10-06T09:32:53.680Z,62.33
2022-10-06T09:35:28.406Z,61.90
2022-10-06T09:38:08.990Z,60.23
2022-10-06T09:40:49.745Z,60.72
2022-10-06T09:43:28.057Z,61.22
2022-10-06T09:46:34.143Z,61.04
2022-10-06T09:49:16.475Z,59.33
2022-10-06T09:52:16.275Z,59.17
2022-10-06T09:55:12.447Z,58.65
2022-10-06T09:57:53.764Z,57.51
2022-10-06T10:00:30.771Z,58.67
2022-10-06T10:03:09.089Z,56.99
2022-10-06T10:05:50.764Z,56.20
2022-10-06T10:08:27.513Z,53.28
2022-10-06T10:11:41.352Z,49.09
2022-10-06T10:14:22.398Z,41.95
2022-10-06T10:16:54.482Z,36.83
2022-10-06T10:19:37.106Z,32.75
2022-10-06T10:22:24.923Z,32.20
2022-10-06T10:25:36.369Z,30.01
2022-10-06T10:28:17.215Z,27.38
2022-10-06T10:31:12.863Z,26.75
2022-10-06T10:34:24.743Z,28.87
2022-10-06T10:37:04.302Z,31.18
2022-10-06T10:39:54.591Z,33.47
2022-10-06T10:42:40.278Z,36.41
2022-10-06T10:45:25.366Z,37.31
2022-10-06T10:48:19.989Z,40.62
2022-10-06T10:51:07.922Z,40.88
2022-10-06T10:54:13.389Z,40.79
2022-10-06T10:56:49.366Z,41.24
2022-10-06T10:59:34.195Z,42.00
2022-10-06T11:02:19.523Z,43.95
2022-10-06T11:05:02.056Z,43.30
2022-10-06T11:08:19.501Z,44.13
2022-10-06T11:10:58.291Z,45.62
2022-10-06T11:13:49.244Z,46.15
2022-10-06T11:16:39.103Z,45.50
2022-10-06T11:19:22.246Z,45.75
2022-10-06T11:22:03.646Z,44.20
2022-10-06T11:25:23.054Z,43.21
2022-10-06T11:28:26.933Z,43.18
2022-10-06T11:31:21.914Z,43.82
2022-10-06T11:33:59.633Z,43.65
2022-10-06T11:36:50.582Z,42.99
2022-10-06T11:39:45.719Z,41.46
2022-10-06T11:42:57.017Z,40.72
2022-10-06T11:46:18.195Z,40.24
2022-10-06T11:48:50.173Z,40.50
2022-10-06T11:51:25.003Z,40.48
2022-10-06T11:53:57.487Z,41.33
2022-10-06T11:56:39.237Z,41.06
2022-10-06T11:59:24.468Z,41.60
2022-10-06T12:01:57.739Z,42.91
2022-10-06T12:04:30.288Z,42.72
2022-10-06T12:07:04.006Z,43.27
2022-10-06T12:09:44.788Z,42.16
2022-10-06T12:12:23.287Z,43.34
2022-10-06T12:19:01.278Z,42.89
2022-10-06T12:21:56.095Z,42.65
2022-10-06T12:24:41.861Z,42.69
2022-10-06T12:27:41.158Z,42.92
2022-10-06T12:30:22.640Z,42.43
2022-10-06T12:32:58.286Z,42.05
2022-10-06T12:35:36.269Z,41.12
2022-10-06T12:38:35.689Z,40.47
2022-10-06T12:41:14.709Z,39.59
2022-10-06T12:43:57.410Z,40.04
2022-10-06T12:46:37.809Z,41.13
2022-10-06T12:49:26.824Z,41.36
2022-10-06T12:52:28.446Z,41.61
2022-10-06T12:55:32.336Z,42.84
2022-10-06T12:58:04.278Z,40.06
2022-10-06T13:00:42.583Z,41.32
2022-10-06T13:03:26.216Z,41.34
2022-10-06T13:06:02.548Z,40.09
2022-10-06T13:08:39.475Z,40.94
2022-10-06T13:11:29.850Z,39.40
2022-10-06T13:14:13.724Z,40.57
2022-10-06T13:16:47.351Z,40.12
2022-10-06T13:19:28.290Z,39.38
2022-10-06T13:22:03.792Z,40.29
2022-10-06T13:24:35.911Z,40.67
2022-10-06T13:27:18.061Z,41.14
2022-10-06T13:29:49.988Z,41.46
2022-10-06T13:32:21.932Z,41.51
2022-10-06T13:34:54.031Z,42.19
2022-10-06T13:37:26.026Z,42.41
2022-10-06T13:39:58.321Z,41.24
2022-10-06T13:42:30.688Z,41.59
2022-10-06T13:45:03.997Z,40.19
2022-10-06T13:47:36.304Z,40.94
2022-10-06T13:50:17.355Z,41.43
2022-10-06T13:52:51.821Z,42.31
2022-10-06T13:55:29.257Z,43.00
2022-10-06T13:58:04.845Z,43.58
2022-10-06T14:01:00.792Z,43.23
2022-10-06T14:06:28.107Z,42.16
2022-10-06T14:09:02.270Z,42.09
2022-10-06T14:11:34.500Z,41.50
2022-10-06T14:14:13.399Z,41.87
2022-10-06T14:16:51.808Z,41.93
2022-10-06T14:19:37.404Z,41.74
2022-10-06T14:22:35.612Z,41.18
2022-10-06T14:25:12.438Z,42.22
2022-10-06T14:27:44.386Z,42.68
2022-10-06T14:30:17.041Z,42.60
2022-10-06T14:32:49.749Z,43.02
2022-10-06T14:35:21.691Z,43.58
2022-10-06T14:37:53.638Z,43.36
2022-10-06T14:40:25.675Z,43.47
2022-10-06T14:42:57.604Z,42.33
2022-10-06T14:45:29.530Z,42.46
2022-10-06T14:48:04.670Z,41.06
2022-10-06T14:50:37.039Z,41.81
2022-10-06T14:53:12.684Z,42.58
2022-10-06T14:55:45.416Z,41.81
2022-10-06T14:58:18.392Z,42.49
2022-10-06T15:00:50.304Z,41.52
2022-10-06T15:03:22.350Z,41.28
2022-10-06T15:06:27.233Z,42.19
2022-10-06T15:08:59.553Z,42.95
2022-10-06T15:11:31.860Z,43.21
2022-10-06T15:14:05.102Z,43.36
2022-10-06T15:16:42.207Z,43.65
2022-10-06T15:19:14.223Z,43.92
2022-10-06T15:21:46.358Z,44.01
2022-10-06T15:24:19.823Z,44.24
2022-10-06T15:27:10.069Z,43.31
2022-10-06T15:29:42.585Z,43.19
2022-10-06T15:32:15.602Z,42.96
2022-10-06T15:34:47.501Z,43.17
2022-10-06T15:37:20.047Z,43.38
2022-10-06T15:39:52.274Z,43.20
2022-10-06T15:42:25.434Z,43.39
2022-10-06T15:44:57.335Z,44.39
2022-10-06T15:47:29.395Z,44.05
2022-10-06T15:50:01.317Z,44.75
2022-10-06T15:52:33.998Z,44.82
2022-10-06T15:55:06.232Z,45.34
2022-10-06T15:57:38.199Z,44.77
2022-10-06T16:00:11.274Z,44.74
2022-10-06T16:02:43.522Z,46.02
2022-10-06T16:05:44.558Z,45.87
2022-10-06T16:08:16.486Z,46.06
2022-10-06T16:10:51.567Z,46.72
2022-10-06T16:13:23.533Z,46.76
2022-10-06T16:15:56.659Z,47.13
2022-10-06T16:18:28.801Z,47.17
2022-10-06T16:21:00.797Z,47.06
2022-10-06T16:23:32.892Z,47.90
2022-10-06T16:26:04.940Z,47.42
2022-10-06T16:28:36.924Z,48.18
2022-10-06T16:31:08.960Z,49.36
2022-10-06T16:33:41.049Z,48.89
2022-10-06T16:36:15.579Z,48.61
2022-10-06T16:38:51.476Z,49.21
2022-10-06T16:41:23.953Z,48.74
2022-10-06T16:43:55.985Z,50.09
2022-10-06T16:46:30.929Z,50.19
2022-10-06T16:49:04.590Z,50.62
2022-10-06T16:51:42.227Z,51.31
2022-10-06T16:54:17.157Z,51.19
2022-10-06T16:56:54.004Z,51.26
2022-10-06T16:59:26.727Z,52.30
2022-10-06T17:01:58.665Z,52.01
2022-10-06T17:04:30.838Z,52.56
2022-10-06T17:07:04.434Z,52.90
2022-10-06T17:09:36.389Z,53.31
2022-10-06T17:12:08.495Z,54.11
2022-10-06T17:14:40.441Z,53.95
2022-10-06T17:17:12.445Z,53.97
2022-10-06T17:19:44.596Z,55.22
2022-10-06T17:22:16.625Z,55.34
2022-10-06T17:24:48.630Z,55.25
2022-10-06T17:27:20.758Z,55.22
2022-10-06T17:29:52.872Z,55.85
2022-10-06T17:32:25.912Z,56.13
2022-10-06T17:34:57.866Z,56.27
2022-10-06T17:37:29.802Z,56.95
2022-10-06T17:40:01.827Z,57.33
2022-10-06T17:42:33.814Z,57.64
2022-10-06T17:45:06.237Z,57.28
2022-10-06T17:47:38.172Z,57.62
2022-10-06T17:50:11.285Z,57.64
2022-10-06T17:52:43.565Z,59.07
2022-10-06T17:55:16.748Z,59.25
2022-10-06T17:57:48.664Z,59.71
2022-10-06T18:00:20.685Z,59.84
2022-10-06T18:03:00.184Z,59.62
2022-10-06T18:05:33.184Z,60.11
2022-10-06T18:08:08.653Z,61.07
2022-10-06T18:11:06.585Z,61.83
2022-10-06T18:13:38.646Z,62.15
2022-10-06T18:16:22.916Z,62.31
2022-10-06T18:18:56.144Z,62.41
2022-10-06T18:21:35.478Z,62.62
2022-10-06T18:24:30.049Z,62.98
2022-10-06T18:27:02.321Z,63.45
2022-10-06T18:29:38.188Z,63.82
2022-10-06T18:37:56.550Z,64.95
2022-10-06T18:40:28.757Z,65.02
2022-10-06T18:43:00.858Z,65.53
2022-10-06T18:45:51.363Z,65.29
2022-10-06T18:48:41.807Z,65.15
2022-10-06T18:51:13.817Z,65.32
2022-10-06T18:53:45.736Z,64.87
2022-10-06T18:56:17.711Z,65.48
2022-10-06T18:58:50.110Z,65.78
2022-10-06T19:01:22.295Z,66.42
2022-10-06T19:04:01.389Z,66.70
2022-10-06T19:06:33.647Z,66.10
2022-10-06T19:09:06.883Z,66.13
2022-10-06T19:11:50.768Z,66.64
2022-10-06T19:14:31.161Z,67.07
2022-10-06T19:17:14.355Z,67.53
2022-10-06T19:19:55.336Z,67.34
2022-10-06T19:22:27.353Z,67.54
2022-10-06T19:24:59.327Z,67.16
2022-10-06T19:27:31.758Z,67.02
2022-10-06T19:30:08.200Z,67.39
2022-10-06T19:32:40.843Z,67.17
2022-10-06T19:35:12.832Z,67.33
2022-10-06T19:37:45.160Z,67.73
2022-10-06T19:40:17.555Z,68.04
2022-10-06T19:42:51.013Z,68.27
2022-10-06T19:45:23.586Z,67.74
2022-10-06T19:47:57.467Z,68.35
2022-10-06T19:50:30.328Z,68.20
2022-10-06T19:53:04.771Z,68.39
2022-10-06T19:55:36.711Z,68.29
2022-10-06T19:58:08.752Z,68.37
2022-10-06T20:00:41.653Z,68.15
2022-10-06T20:03:13.610Z,68.31
2022-10-06T20:05:45.547Z,68.65
2022-10-06T20:08:17.814Z,69.16
2022-10-06T20:10:49.906Z,68.71
2022-10-06T20:13:21.831Z,68.87
2022-10-06T20:15:53.739Z,68.94
2022-10-06T20:18:26.397Z,69.44
2022-10-06T20:20:58.858Z,69.37
2022-10-06T20:23:31.933Z,69.47
2022-10-06T20:26:17.386Z,69.77
2022-10-06T20:28:50.714Z,69.51
2022-10-06T20:31:27.142Z,69.43
2022-10-06T20:34:01.644Z,69.79
2022-10-06T20:36:35.598Z,70.36
2022-10-06T20:39:30.304Z,70.31
2022-10-06T20:42:02.881Z,70.54
2022-10-06T20:44:35.010Z,70.70
2022-10-06T20:47:08.883Z,70.05
2022-10-06T20:49:42.648Z,70.92
2022-10-06T20:52:15.046Z,70.37
2022-10-06T20:54:47.124Z,70.34
2022-10-06T20:57:19.124Z,71.40
2022-10-06T20:59:52.599Z,70.79
2022-10-06T21:02:24.791Z,71.34
2022-10-06T21:04:57.517Z,71.86
2022-10-06T21:07:29.526Z,71.66
2022-10-06T21:10:01.567Z,71.06
2022-10-06T21:12:33.573Z,71.75
2022-10-06T21:15:05.962Z,72.18
2022-10-06T21:17:38.173Z,72.42
2022-10-06T21:20:10.290Z,72.27
2022-10-06T21:22:42.306Z,71.71
2022-10-06T21:25:14.470Z,71.59
2022-10-06T21:27:47.338Z,72.49
2022-10-06T21:30:19.307Z,71.98
2022-10-06T21:32:51.281Z,72.12
2022-10-06T21:35:24.146Z,72.54
2022-10-06T21:37:56.096Z,73.10
2022-10-06T21:40:28.157Z,72.77
2022-10-06T21:43:00.172Z,73.77
2022-10-06T21:45:33.133Z,73.85
2022-10-06T21:48:05.465Z,73.36
2022-10-06T21:50:37.534Z,74.14
2022-10-06T21:53:09.731Z,74.29
2022-10-06T21:55:41.687Z,74.27
2022-10-06T21:58:13.972Z,74.20
2022-10-06T22:00:46.058Z,74.60
2022-10-06T22:03:18.080Z,74.38
2022-10-06T22:05:50.027Z,74.25
2022-10-06T22:08:22.019Z,74.68
2022-10-06T22:10:54.032Z,74.94
2022-10-06T22:13:25.972Z,75.01
2022-10-06T22:16:01.566Z,75.11
2022-10-06T22:18:35.109Z,75.46
2022-10-06T22:21:14.848Z,75.65
2022-10-06T22:23:53.756Z,75.72
2022-10-06T22:26:28.475Z,75.51
2022-10-06T22:29:00.925Z,75.49
2022-10-06T22:31:33.033Z,75.98
2022-10-06T22:34:05.106Z,75.69
2022-10-06T22:36:37.240Z,76.25
2022-10-06T22:39:09.428Z,75.98
2022-10-06T22:41:41.418Z,76.31
2022-10-06T22:44:13.481Z,75.90
2022-10-06T22:46:45.499Z,76.47
2022-10-06T22:49:17.614Z,76.63
2022-10-06T22:51:49.547Z,77.18
2022-10-06T22:54:22.699Z,77.02
2022-10-06T22:56:54.788Z,76.73
2022-10-06T22:59:26.822Z,77.12
2022-10-06T23:01:58.783Z,77.54
2022-10-06T23:04:31.307Z,77.31
2022-10-06T23:07:03.332Z,77.01
2022-10-06T23:09:36.755Z,77.18
2022-10-06T23:12:08.703Z,76.90
2022-10-06T23:14:40.663Z,77.45
2022-10-06T23:17:12.586Z,77.32
2022-10-06T23:19:44.650Z,77.67
2022-10-06T23:22:16.609Z,77.63
2022-10-06T23:24:48.583Z,77.79
2022-10-06T23:27:20.640Z,77.30
2022-10-06T23:29:52.665Z,77.78
2022-10-06T23:32:24.694Z,77.67
2022-10-06T23:34:56.656Z,77.79
2022-10-06T23:37:28.942Z,77.58
2022-10-06T23:40:00.937Z,77.59
2022-10-06T23:42:33.432Z,78.21
2022-10-06T23:45:07.787Z,79.24
2022-10-06T23:47:39.741Z,79.56
2022-10-06T23:50:11.694Z,79.82
2022-10-06T23:52:43.639Z,79.63
2022-10-06T23:55:15.673Z,80.07
2022-10-06T23:57:47.600Z,80.01
